Ansonia, OH (45303)

9:46 AM EDT en Septiembre 01, 2014 (GMT -0400)
B's Weather Center | Change Station
CLOSE
Current Station
Estación meteorológica personal
Location: Versailles, OH
Altura: 1020 ft
Estaciones meteorológicas cercanas

Alt 1020 ft 40.24 °N, 84.60 °W | Updated 6 minutes ago

Overcast
Nublado
75.4 ° F
Sensación térmica 75 ° F
N
2.7
Viento Variable Viento desde OSO

Hoy
Alta -- | Baja -- ° F
--% Posibilidad de precipitaciones
Ayer
Alta -- | Baja -- ° F
Precip. -- pul
7:06 AM 8:10 PM
Creciente, 41% visible
Presión 29.97 pul
Visibilidad 7.0 Millas
Nubes Nublado 1100 ft
Índice de calor 75 ° F
Punto de rocío 71 ° F
Humedad 86%
Precipitaciones 0.00 pul
Espesor de la nieve No disponible.
UV 1 de una escala de 12
Polen 10.00 de una escala de 12
Ozono Buena
PM2.5 Buena
Flu Activity No disponible.
METAR KVES 011335Z AUTO 20005KT 7SM OVC011 23/23 A2997 RMK AO2

More Conditions Fewer Conditions

Presión 29.97 pul
Visibilidad 7.0 Millas
Nubes Nublado 1100 ft
Índice de calor 75 ° F
Punto de rocío 71 ° F
Humedad 86%
Precipitaciones 0.00 pul
Espesor de la nieve No disponible.
UV 1 de una escala de 12
Polen 10.00 de una escala de 12
Ozono Buena
PM2.5 Buena
Flu Activity No disponible.
METAR KVES 011335Z AUTO 20005KT 7SM OVC011 23/23 A2997 RMK AO2

More Conditions Fewer Conditions

10-Day Weather Forecast

Almanac

Astronomía

Sep. 01, 2014 Salida Puesta
Hora real 7:06 AM EDT 8:10 PM EDT
Crepúsculo civil 6:38 AM EDT 8:38 PM EDT
Crepúsculo náutico 6:04 AM EDT 9:11 PM EDT
Crepúsculo astronómico 5:30 AM EDT 9:45 PM EDT
Luna 1:51 PM EDT Sin puesta de luna
Horas de luz 13h 59m
Horas de luz
13h 04m
Tomorrow will be 2m 34s shorter.
Creciente, 41% of the Moon is Illuminated
Hoy
Creciente
Sep 2
Cuarto creciente
Sep 8
Luna llena
Sep 15
Cuarto menguante
Sep 24
Nueva

Extremos de hoy

Máximos del estado Bajos del estado

Community

WunderPhotos

Upload Photos

1,749,222 ¡fotos cargadas!

Nearby

Calidad del aire

  Calidad del aire Índice AQ Contaminante
Ayer Buena
PM2.5
Ayer Buena
OZONE
Real Buena
PM2.5
Real Buena
OZONE
Lunes Moderada
PM2.5
Lunes Buena
OZONE
Martes Moderada
PM2.5
Martes Buena
OZONE

Grosos de nieve

Estación Profundido Altura
No tenemos constancia de nieve nueva.

Actividad de terremotos

Ciudad Distance Mag. Tiempo y dato
No hay informes recientes de la actividad sísmica.
Magnitud mínima muestra es 2,5.

Temperaturas de aguas costeras

Lugar Temperatura
Sin partes meteorológicos de las estaciones

Estaciones meteorológicas cercanas